Time;durP1;ratioP1;P1;durP2;ratioP2;P2;SDS_P1;SDS_P2;PMS_P1;PMS_P2;Temp;Humidity;BMP_temperature;BMP_pressure;BME280_temperature;BME280_humidity;BME280_pressure;Samples;Min_cycle;Max_cycle;Signal;HPM_P1;HPM_P2
2022/08/15 00:01:11;;;;;;;;;6.00;6.00;;;;;;;;5000691;28;8850;-77
2022/08/15 00:03:44;;;;;;;;;9.00;7.00;;;;;;;;4996934;28;8892;-77
2022/08/15 00:06:16;;;;;;;;;8.50;8.25;;;;;;;;5000022;28;8911;-77
2022/08/15 00:08:47;;;;;;;;;8.25;8.25;;;;;;;;4998201;28;8883;-76
2022/08/15 00:11:17;;;;;;;;;7.00;6.25;;;;;;;;4997145;28;8894;-76
2022/08/15 00:13:45;;;;;;;;;7.50;7.25;;;;;;;;4997865;28;8880;-77
2022/08/15 00:16:14;;;;;;;;;7.25;7.25;;;;;;;;4999405;28;8910;-76
2022/08/15 00:18:43;;;;;;;;;9.25;7.75;;;;;;;;5002744;28;8983;-77
2022/08/15 00:21:12;;;;;;;;;7.50;7.50;;;;;;;;4998014;28;8903;-77
2022/08/15 00:23:41;;;;;;;;;9.00;8.00;;;;;;;;4996916;28;8872;-77
2022/08/15 00:26:09;;;;;;;;;5.75;5.75;;;;;;;;4999174;28;8868;-78
2022/08/15 00:28:37;;;;;;;;;11.50;6.50;;;;;;;;4997318;28;8864;-77
2022/08/15 00:31:06;;;;;;;;;7.00;7.00;;;;;;;;4998854;28;8825;-77
2022/08/15 00:33:37;;;;;;;;;7.25;7.00;;;;;;;;4994362;28;8896;-77
2022/08/15 00:36:07;;;;;;;;;7.50;7.50;;;;;;;;4998174;28;8864;-78
2022/08/15 00:38:36;;;;;;;;;9.75;9.75;;;;;;;;5001485;28;8880;-77
2022/08/15 00:43:55;;;;;;;;;8.00;8.00;;;;;;;;4999334;28;8856;-77
2022/08/15 00:46:22;;;;;;;;;9.00;7.25;;;;;;;;4996132;28;9056;-77
2022/08/15 00:48:50;;;;;;;;;9.00;9.00;;;;;;;;4999188;28;8876;-77
2022/08/15 00:51:20;;;;;;;;;7.75;7.00;;;;;;;;4999116;28;8872;-77
2022/08/15 00:53:53;;;;;;;;;9.00;7.00;;;;;;;;5001242;28;9571;-77
2022/08/15 00:56:22;;;;;;;;;4.25;4.25;;;;;;;;4997766;28;8953;-77
2022/08/15 00:58:49;;;;;;;;;8.50;8.00;;;;;;;;4995418;28;8878;-77
2022/08/15 01:01:17;;;;;;;;;11.75;10.00;;;;;;;;4997932;28;8843;-77
2022/08/15 01:03:47;;;;;;;;;11.25;10.25;;;;;;;;4998710;28;8958;-77
2022/08/15 01:06:15;;;;;;;;;10.25;8.75;;;;;;;;4998014;28;8872;-76
2022/08/15 01:08:44;;;;;;;;;12.75;12.75;;;;;;;;4996158;28;8868;-77
2022/08/15 01:11:16;;;;;;;;;10.00;10.00;;;;;;;;4998666;28;8872;-76
2022/08/15 01:13:44;;;;;;;;;11.00;11.00;;;;;;;;4995025;28;8946;-76
2022/08/15 01:16:11;;;;;;;;;12.25;11.00;;;;;;;;4996440;28;8880;-77
2022/08/15 01:18:39;;;;;;;;;14.00;14.00;;;;;;;;4997155;28;8942;-77
2022/08/15 01:21:14;;;;;;;;;11.00;11.00;;;;;;;;4997534;28;8865;-76
2022/08/15 01:23:48;;;;;;;;;10.50;10.50;;;;;;;;4998924;28;8879;-76
2022/08/15 01:26:17;;;;;;;;;13.75;10.25;;;;;;;;4999940;28;8856;-76
2022/08/15 01:28:47;;;;;;;;;9.25;9.25;;;;;;;;5000653;28;8977;-76
2022/08/15 01:31:16;;;;;;;;;10.50;10.50;;;;;;;;4997802;28;8836;-77
2022/08/15 01:33:46;;;;;;;;;11.25;10.75;;;;;;;;4995519;28;8914;-77
2022/08/15 01:36:14;;;;;;;;;11.25;11.25;;;;;;;;4999113;28;8978;-76
2022/08/15 01:38:44;;;;;;;;;18.50;14.00;;;;;;;;4998384;28;8868;-77
2022/08/15 01:41:19;;;;;;;;;14.00;14.00;;;;;;;;5001277;28;8872;-76
2022/08/15 01:43:52;;;;;;;;;9.75;9.75;;;;;;;;4996669;28;9592;-76
2022/08/15 01:46:23;;;;;;;;;15.00;13.00;;;;;;;;4996611;28;9670;-76
2022/08/15 01:48:56;;;;;;;;;13.00;12.00;;;;;;;;4998944;28;10087;-76
2022/08/15 01:51:24;;;;;;;;;13.00;13.00;;;;;;;;4997518;28;8884;-76
2022/08/15 01:53:55;;;;;;;;;16.50;13.50;;;;;;;;4997869;28;8898;-76
2022/08/15 01:56:28;;;;;;;;;10.00;8.25;;;;;;;;4998427;28;9277;-76
2022/08/15 01:58:57;;;;;;;;;14.25;12.75;;;;;;;;4998867;28;8923;-76
2022/08/15 02:01:41;;;;;;;;;14.50;13.75;;;;;;;;5000098;28;8789;-76
2022/08/15 02:04:08;;;;;;;;;14.00;11.25;;;;;;;;4994736;28;8873;-76
2022/08/15 02:06:36;;;;;;;;;14.00;14.00;;;;;;;;4996133;28;8898;-77
2022/08/15 02:09:05;;;;;;;;;14.75;14.75;;;;;;;;4998356;28;8862;-76
2022/08/15 02:11:34;;;;;;;;;13.25;13.00;;;;;;;;4996988;28;8872;-76
2022/08/15 02:14:01;;;;;;;;;11.75;11.75;;;;;;;;4999154;28;8881;-76
2022/08/15 02:16:31;;;;;;;;;15.50;15.50;;;;;;;;4997800;28;8872;-76
2022/08/15 02:18:59;;;;;;;;;14.25;13.75;;;;;;;;5000396;28;8895;-76
2022/08/15 02:21:27;;;;;;;;;16.50;14.00;;;;;;;;4991120;28;8875;-76
2022/08/15 02:23:54;;;;;;;;;13.25;10.75;;;;;;;;4993313;28;8871;-76
2022/08/15 02:26:22;;;;;;;;;11.00;10.50;;;;;;;;4998979;28;8994;-76
2022/08/15 02:28:51;;;;;;;;;14.75;13.25;;;;;;;;5000234;28;8915;-76
2022/08/15 02:31:23;;;;;;;;;9.75;9.25;;;;;;;;4994373;28;8807;-76
2022/08/15 02:33:53;;;;;;;;;14.50;13.50;;;;;;;;4997195;28;8910;-76
2022/08/15 02:36:21;;;;;;;;;15.00;11.75;;;;;;;;4997337;28;8872;-76
2022/08/15 02:38:49;;;;;;;;;13.75;11.75;;;;;;;;5002934;28;8860;-76
2022/08/15 02:41:21;;;;;;;;;14.75;12.75;;;;;;;;4999845;28;8900;-76
2022/08/15 02:43:50;;;;;;;;;17.50;16.50;;;;;;;;4996170;28;8876;-76
2022/08/15 02:46:19;;;;;;;;;18.25;16.75;;;;;;;;5003907;28;8884;-76
2022/08/15 02:48:48;;;;;;;;;13.75;13.75;;;;;;;;5002212;28;9668;-76
2022/08/15 02:51:16;;;;;;;;;19.00;18.25;;;;;;;;4997872;28;8859;-76
2022/08/15 02:53:46;;;;;;;;;16.25;14.75;;;;;;;;5000554;28;8959;-76
2022/08/15 02:56:14;;;;;;;;;15.75;15.75;;;;;;;;4999946;28;8848;-77
2022/08/15 02:58:41;;;;;;;;;17.00;14.00;;;;;;;;4999709;28;8880;-76
2022/08/15 03:01:10;;;;;;;;;12.00;12.00;;;;;;;;5000928;28;8837;-75
2022/08/15 03:03:39;;;;;;;;;19.50;18.00;;;;;;;;5000493;28;8868;-75
2022/08/15 03:06:12;;;;;;;;;15.75;13.50;;;;;;;;5001264;28;8868;-76
2022/08/15 03:08:41;;;;;;;;;21.25;17.75;;;;;;;;5001758;28;8880;-76
2022/08/15 03:11:09;;;;;;;;;17.00;17.00;;;;;;;;4999757;28;8902;-76
2022/08/15 03:13:39;;;;;;;;;26.25;23.50;;;;;;;;4997109;28;8860;-75
2022/08/15 03:16:13;;;;;;;;;22.50;21.00;;;;;;;;5001481;28;8869;-76
2022/08/15 03:18:41;;;;;;;;;25.50;23.75;;;;;;;;4998638;28;9872;-76
2022/08/15 03:21:12;;;;;;;;;22.75;19.75;;;;;;;;5002645;28;8872;-75
2022/08/15 03:23:46;;;;;;;;;28.75;24.75;;;;;;;;4996684;28;8872;-76
2022/08/15 03:26:13;;;;;;;;;32.75;27.25;;;;;;;;5001795;28;9720;-76
2022/08/15 03:28:41;;;;;;;;;25.50;22.50;;;;;;;;4998057;28;8903;-76
2022/08/15 03:31:10;;;;;;;;;28.25;23.25;;;;;;;;4995422;28;8836;-76
2022/08/15 03:33:39;;;;;;;;;24.00;22.00;;;;;;;;4998845;28;8914;-76
2022/08/15 03:36:08;;;;;;;;;30.50;26.75;;;;;;;;4996570;28;8896;-76
2022/08/15 03:38:36;;;;;;;;;23.50;23.50;;;;;;;;5000420;28;8895;-76
2022/08/15 03:41:07;;;;;;;;;23.00;21.50;;;;;;;;5002153;28;8880;-76
2022/08/15 03:43:37;;;;;;;;;23.50;23.50;;;;;;;;5002482;28;8875;-76
2022/08/15 03:46:06;;;;;;;;;26.25;23.25;;;;;;;;5000172;28;8887;-76
2022/08/15 03:48:38;;;;;;;;;22.75;21.00;;;;;;;;4996456;28;8868;-76
2022/08/15 03:51:07;;;;;;;;;25.25;23.50;;;;;;;;4999226;28;9658;-76
2022/08/15 03:53:38;;;;;;;;;20.50;20.50;;;;;;;;4999178;28;8867;-76
2022/08/15 03:56:07;;;;;;;;;21.25;21.25;;;;;;;;5002739;28;9025;-76
2022/08/15 03:58:35;;;;;;;;;19.00;19.00;;;;;;;;4999202;28;8910;-76
2022/08/15 04:01:03;;;;;;;;;15.50;15.50;;;;;;;;4998086;28;8801;-76
2022/08/15 04:03:31;;;;;;;;;22.75;21.25;;;;;;;;5000157;28;8888;-75
2022/08/15 04:06:02;;;;;;;;;17.75;17.75;;;;;;;;4998888;28;8903;-75
2022/08/15 04:08:31;;;;;;;;;17.75;15.75;;;;;;;;5000736;28;8883;-76
2022/08/15 04:11:01;;;;;;;;;16.75;16.75;;;;;;;;4995687;28;8860;-76
2022/08/15 04:13:29;;;;;;;;;18.00;18.00;;;;;;;;5001685;28;9767;-76
2022/08/15 04:16:01;;;;;;;;;16.75;16.75;;;;;;;;4997308;28;8899;-75
2022/08/15 04:18:29;;;;;;;;;18.50;16.25;;;;;;;;4999021;28;9505;-76
2022/08/15 04:20:59;;;;;;;;;14.50;14.50;;;;;;;;5000222;28;8882;-76
2022/08/15 04:23:27;;;;;;;;;17.50;16.75;;;;;;;;4997305;28;8892;-76
2022/08/15 04:25:55;;;;;;;;;17.50;15.25;;;;;;;;4999820;28;8896;-76
2022/08/15 04:28:24;;;;;;;;;18.50;17.50;;;;;;;;4998405;28;8888;-76
2022/08/15 04:30:52;;;;;;;;;21.50;20.25;;;;;;;;4999475;28;8843;-76
2022/08/15 04:33:22;;;;;;;;;16.25;15.75;;;;;;;;4997373;28;8864;-76
2022/08/15 04:35:52;;;;;;;;;14.50;14.50;;;;;;;;4998855;28;9007;-75
2022/08/15 04:38:21;;;;;;;;;17.25;15.00;;;;;;;;5000057;28;8865;-75
2022/08/15 04:40:50;;;;;;;;;18.25;18.25;;;;;;;;4995448;28;8876;-76
2022/08/15 04:43:19;;;;;;;;;18.50;17.00;;;;;;;;4998541;28;9003;-76
2022/08/15 04:45:46;;;;;;;;;17.75;15.50;;;;;;;;4997728;28;8916;-76
2022/08/15 04:48:14;;;;;;;;;19.75;19.75;;;;;;;;4997843;28;8932;-76
2022/08/15 04:50:44;;;;;;;;;14.00;13.25;;;;;;;;4999308;28;8900;-76
2022/08/15 04:53:11;;;;;;;;;13.25;13.25;;;;;;;;5000535;28;8895;-76
2022/08/15 04:55:43;;;;;;;;;18.00;16.00;;;;;;;;4997695;28;8886;-75
2022/08/15 04:58:12;;;;;;;;;11.25;11.25;;;;;;;;4998789;28;8912;-76
2022/08/15 05:00:40;;;;;;;;;20.25;19.00;;;;;;;;5000315;28;8886;-76
2022/08/15 05:03:10;;;;;;;;;17.00;17.00;;;;;;;;4996687;28;8879;-75
2022/08/15 05:05:40;;;;;;;;;18.50;18.50;;;;;;;;4998228;28;8880;-76
2022/08/15 05:08:07;;;;;;;;;17.00;16.00;;;;;;;;4998964;28;8871;-76
2022/08/15 05:10:35;;;;;;;;;17.50;16.00;;;;;;;;4999282;28;9038;-76
2022/08/15 05:13:12;;;;;;;;;22.25;18.25;;;;;;;;4997861;28;8883;-76
2022/08/15 05:15:40;;;;;;;;;17.75;17.50;;;;;;;;4992767;28;8911;-76
2022/08/15 05:18:07;;;;;;;;;15.75;15.75;;;;;;;;5000817;28;8840;-76
2022/08/15 05:20:35;;;;;;;;;14.75;14.75;;;;;;;;4997603;28;8884;-75
2022/08/15 05:23:04;;;;;;;;;23.75;19.75;;;;;;;;4995757;28;9027;-76
2022/08/15 05:25:33;;;;;;;;;17.00;15.50;;;;;;;;4994825;28;8912;-76
2022/08/15 05:28:01;;;;;;;;;19.00;19.00;;;;;;;;4996265;28;8896;-76
2022/08/15 05:30:30;;;;;;;;;22.75;20.25;;;;;;;;4996862;28;8813;-76
2022/08/15 05:33:16;;;;;;;;;22.75;21.00;;;;;;;;4994787;28;9051;-76
2022/08/15 05:35:46;;;;;;;;;22.75;21.25;;;;;;;;4997424;28;10417;-78
2022/08/15 05:38:16;;;;;;;;;19.50;19.25;;;;;;;;4999000;28;8878;-76
2022/08/15 05:40:51;;;;;;;;;27.75;24.50;;;;;;;;4998396;28;8889;-76
2022/08/15 05:43:26;;;;;;;;;27.00;27.00;;;;;;;;4995705;28;8867;-77
2022/08/15 05:46:03;;;;;;;;;27.50;26.00;;;;;;;;5001479;28;8876;-77
2022/08/15 05:48:32;;;;;;;;;27.75;23.75;;;;;;;;4998273;28;9699;-76
2022/08/15 05:51:07;;;;;;;;;26.00;24.25;;;;;;;;4994486;28;8891;-78
2022/08/15 05:53:46;;;;;;;;;30.50;30.25;;;;;;;;5000285;28;8914;-77
2022/08/15 05:56:22;;;;;;;;;26.00;26.00;;;;;;;;5001936;28;9699;-76
2022/08/15 05:58:54;;;;;;;;;21.00;20.75;;;;;;;;5000302;28;8895;-77
2022/08/15 06:01:28;;;;;;;;;32.25;29.00;;;;;;;;4996052;28;8908;-77
2022/08/15 06:04:01;;;;;;;;;28.25;26.00;;;;;;;;4998985;28;8895;-77
2022/08/15 06:06:32;;;;;;;;;28.25;27.50;;;;;;;;4999561;28;8919;-77
2022/08/15 06:09:05;;;;;;;;;29.75;27.75;;;;;;;;4997968;28;8871;-77
2022/08/15 06:11:37;;;;;;;;;27.75;25.50;;;;;;;;5004376;28;8896;-77
2022/08/15 06:14:24;;;;;;;;;33.25;27.75;;;;;;;;4998757;28;9633;-76
2022/08/15 06:16:56;;;;;;;;;23.75;22.00;;;;;;;;5004209;28;8904;-77
2022/08/15 06:19:26;;;;;;;;;24.50;23.50;;;;;;;;5004964;28;8910;-77
2022/08/15 06:22:02;;;;;;;;;32.25;30.75;;;;;;;;5000283;28;9757;-76
2022/08/15 06:24:36;;;;;;;;;27.25;27.25;;;;;;;;5004704;28;9043;-76
2022/08/15 06:27:11;;;;;;;;;20.50;20.50;;;;;;;;5000004;28;9009;-76
2022/08/15 06:30:02;;;;;;;;;26.75;24.25;;;;;;;;5004222;28;8981;-77
2022/08/15 06:32:38;;;;;;;;;37.50;33.00;;;;;;;;4982718;28;8850;-77
2022/08/15 06:35:15;;;;;;;;;26.25;24.75;;;;;;;;4980836;28;8951;-78
2022/08/15 06:37:51;;;;;;;;;26.50;26.50;;;;;;;;4977894;28;8944;-76
2022/08/15 06:40:25;;;;;;;;;31.25;29.75;;;;;;;;4981409;28;8949;-76
2022/08/15 06:42:52;;;;;;;;;27.75;27.75;;;;;;;;4982467;28;8903;-76
2022/08/15 06:45:22;;;;;;;;;26.00;24.75;;;;;;;;4983614;28;8867;-77
2022/08/15 06:48:00;;;;;;;;;26.50;23.25;;;;;;;;4982823;28;9004;-77
2022/08/15 06:50:32;;;;;;;;;24.75;22.00;;;;;;;;4982667;28;8937;-77
2022/08/15 06:53:05;;;;;;;;;26.00;26.00;;;;;;;;4980484;28;8889;-77
2022/08/15 06:55:44;;;;;;;;;30.75;30.00;;;;;;;;4980978;28;9699;-77
2022/08/15 06:58:16;;;;;;;;;34.50;29.25;;;;;;;;4979547;28;8852;-77
2022/08/15 07:00:46;;;;;;;;;23.25;23.25;;;;;;;;4976832;28;9745;-77
2022/08/15 07:03:20;;;;;;;;;28.50;28.50;;;;;;;;4983803;28;8986;-77
2022/08/15 07:05:54;;;;;;;;;22.25;22.25;;;;;;;;4979010;28;8886;-77
2022/08/15 07:08:31;;;;;;;;;26.50;26.50;;;;;;;;4982877;28;8885;-77
2022/08/15 07:11:07;;;;;;;;;25.50;25.50;;;;;;;;4982773;28;8855;-77
2022/08/15 07:13:40;;;;;;;;;25.25;25.25;;;;;;;;4977893;28;8975;-77
2022/08/15 07:16:15;;;;;;;;;26.50;24.50;;;;;;;;4984535;28;8879;-77
2022/08/15 07:18:46;;;;;;;;;27.75;26.75;;;;;;;;4983648;28;8894;-77
2022/08/15 07:21:20;;;;;;;;;23.75;22.75;;;;;;;;4985339;28;8863;-77
2022/08/15 07:24:03;;;;;;;;;21.75;21.75;;;;;;;;4983256;28;8905;-76
2022/08/15 07:26:32;;;;;;;;;27.50;24.75;;;;;;;;4980494;28;9704;-78
2022/08/15 07:29:01;;;;;;;;;21.25;21.25;;;;;;;;4984961;28;8905;-77
2022/08/15 07:31:32;;;;;;;;;24.75;23.00;;;;;;;;4979019;28;9638;-77
2022/08/15 07:34:06;;;;;;;;;24.50;24.00;;;;;;;;4982526;28;8883;-77
2022/08/15 07:36:38;;;;;;;;;21.75;20.25;;;;;;;;4981798;28;8936;-77
2022/08/15 07:39:23;;;;;;;;;23.80;22.00;;;;;;;;4981013;28;8952;-77
2022/08/15 07:41:50;;;;;;;;;23.00;20.00;;;;;;;;4981857;28;9014;-78
2022/08/15 07:44:20;;;;;;;;;22.75;19.00;;;;;;;;4981619;28;8880;-77
2022/08/15 07:46:52;;;;;;;;;18.40;17.00;;;;;;;;4981072;28;8894;-77
2022/08/15 07:49:25;;;;;;;;;14.80;14.80;;;;;;;;4982335;28;8859;-77
2022/08/15 07:52:02;;;;;;;;;14.40;14.40;;;;;;;;4980781;28;8895;-78
2022/08/15 07:54:32;;;;;;;;;14.60;14.60;;;;;;;;4982684;28;8886;-76
2022/08/15 07:57:03;;;;;;;;;19.40;16.60;;;;;;;;4981851;28;9724;-77
2022/08/15 07:59:33;;;;;;;;;12.40;12.20;;;;;;;;4983716;28;8898;-77
2022/08/15 08:02:07;;;;;;;;;15.80;15.80;;;;;;;;4979481;28;8819;-78
2022/08/15 08:04:37;;;;;;;;;16.80;16.80;;;;;;;;4983092;28;8874;-77
2022/08/15 08:07:11;;;;;;;;;14.60;14.60;;;;;;;;4980841;28;8913;-77
2022/08/15 08:09:43;;;;;;;;;13.60;13.60;;;;;;;;4980609;28;8911;-78
2022/08/15 08:12:20;;;;;;;;;16.60;15.20;;;;;;;;4982075;28;8956;-78
2022/08/15 08:14:56;;;;;;;;;15.20;15.20;;;;;;;;4983330;28;8875;-78
2022/08/15 08:17:30;;;;;;;;;13.60;12.60;;;;;;;;4981824;28;8899;-77
2022/08/15 08:20:13;;;;;;;;;13.60;13.00;;;;;;;;4979653;28;9855;-78
2022/08/15 08:22:51;;;;;;;;;16.40;14.80;;;;;;;;4982505;28;8946;-77
2022/08/15 08:25:25;;;;;;;;;14.80;14.40;;;;;;;;4981789;28;8871;-77
2022/08/15 08:28:02;;;;;;;;;13.60;11.40;;;;;;;;4980269;28;8875;-78
2022/08/15 08:30:37;;;;;;;;;14.00;12.00;;;;;;;;4980683;28;8808;-78
2022/08/15 08:33:13;;;;;;;;;13.60;10.40;;;;;;;;4978898;28;9170;-79
2022/08/15 08:35:46;;;;;;;;;15.20;13.00;;;;;;;;4981726;28;8890;-77
2022/08/15 08:38:25;;;;;;;;;13.00;12.00;;;;;;;;4981445;28;8905;-78
2022/08/15 08:44:03;;;;;;;;;9.20;9.20;;;;;;;;4906799;29;8900;-77
2022/08/15 08:46:44;;;;;;;;;12.00;12.00;;;;;;;;4971058;28;8920;-78
2022/08/15 08:49:18;;;;;;;;;12.60;12.60;;;;;;;;4979297;28;8874;-83
2022/08/15 08:51:56;;;;;;;;;13.00;11.20;;;;;;;;4974003;28;9004;-78
2022/08/15 08:54:28;;;;;;;;;10.60;9.00;;;;;;;;4978601;28;8895;-78
2022/08/15 08:57:00;;;;;;;;;15.00;13.80;;;;;;;;4979165;28;8851;-77
2022/08/15 08:59:31;;;;;;;;;8.80;8.80;;;;;;;;4977627;28;8994;-77
2022/08/15 09:02:01;;;;;;;;;12.60;12.60;;;;;;;;4995367;28;8813;-77
2022/08/15 09:04:35;;;;;;;;;12.40;12.40;;;;;;;;4997384;28;9539;-77
2022/08/15 09:07:06;;;;;;;;;13.00;11.40;;;;;;;;5000043;28;8887;-79
2022/08/15 09:09:38;;;;;;;;;9.80;8.80;;;;;;;;4996221;28;8848;-78
2022/08/15 09:15:00;;;;;;;;;11.20;10.60;;;;;;;;4995270;28;8855;-79
2022/08/15 09:17:30;;;;;;;;;9.80;8.40;;;;;;;;4997894;28;8896;-79
2022/08/15 09:20:04;;;;;;;;;11.60;11.60;;;;;;;;5000631;28;8974;-77
2022/08/15 09:22:38;;;;;;;;;9.40;9.40;;;;;;;;4999334;28;8864;-77
2022/08/15 09:25:07;;;;;;;;;9.80;9.80;;;;;;;;4996142;28;8876;-76
2022/08/15 09:27:41;;;;;;;;;8.60;8.60;;;;;;;;4999613;28;8877;-81
2022/08/15 09:30:11;;;;;;;;;10.40;9.80;;;;;;;;4998305;28;8965;-78
2022/08/15 09:32:49;;;;;;;;;10.60;10.00;;;;;;;;4998384;28;8880;-81
2022/08/15 09:35:32;;;;;;;;;6.00;4.60;;;;;;;;4997398;28;9670;-79
2022/08/15 09:38:21;;;;;;;;;11.60;11.60;;;;;;;;4998866;28;8886;-80
2022/08/15 09:41:08;;;;;;;;;9.20;8.60;;;;;;;;4997537;28;8876;-78
2022/08/15 09:43:55;;;;;;;;;12.00;10.00;;;;;;;;4999633;28;8900;-77
2022/08/15 09:46:46;;;;;;;;;8.60;8.60;;;;;;;;5003542;28;8884;-78
2022/08/15 09:49:27;;;;;;;;;9.60;9.20;;;;;;;;5002439;28;8875;-78
2022/08/15 09:52:09;;;;;;;;;11.20;11.20;;;;;;;;5004459;28;8888;-79
2022/08/15 09:54:47;;;;;;;;;11.40;9.40;;;;;;;;5004208;28;8891;-82
2022/08/15 09:57:36;;;;;;;;;11.60;11.60;;;;;;;;5002892;28;8876;-74
2022/08/15 10:00:17;;;;;;;;;12.40;12.40;;;;;;;;5002558;28;8953;-73
2022/08/15 10:02:51;;;;;;;;;11.00;11.00;;;;;;;;5001911;28;8809;-74
2022/08/15 10:05:29;;;;;;;;;10.00;10.00;;;;;;;;5002222;28;8863;-74
2022/08/15 10:08:00;;;;;;;;;10.60;10.60;;;;;;;;5003520;28;9697;-74
2022/08/15 10:11:12;;;;;;;;;11.40;9.20;;;;;;;;5003826;28;10369;-73
2022/08/15 10:13:48;;;;;;;;;11.20;9.60;;;;;;;;5001407;28;8879;-75
2022/08/15 10:16:46;;;;;;;;;10.80;9.00;;;;;;;;5003594;28;8880;-75
2022/08/15 10:19:29;;;;;;;;;10.40;9.80;;;;;;;;5000392;28;8999;-74
2022/08/15 10:21:59;;;;;;;;;11.00;9.20;;;;;;;;4999506;28;8880;-73
2022/08/15 10:24:30;;;;;;;;;9.20;9.20;;;;;;;;5000738;28;8869;-73
2022/08/15 10:27:25;;;;;;;;;10.00;10.00;;;;;;;;5000353;28;8995;-76
2022/08/15 10:30:10;;;;;;;;;6.80;6.80;;;;;;;;5002230;28;9003;-74
2022/08/15 10:32:42;;;;;;;;;9.00;9.00;;;;;;;;5000673;28;8805;-74
2022/08/15 10:35:16;;;;;;;;;10.20;9.00;;;;;;;;5003942;28;8877;-74
2022/08/15 10:37:51;;;;;;;;;9.40;8.40;;;;;;;;5000305;28;8857;-73
2022/08/15 10:40:37;;;;;;;;;7.60;7.60;;;;;;;;5001735;28;8888;-73
2022/08/15 10:43:26;;;;;;;;;9.40;8.60;;;;;;;;5000168;28;8872;-72
2022/08/15 10:46:00;;;;;;;;;12.60;11.20;;;;;;;;4997495;28;8881;-72
2022/08/15 10:48:42;;;;;;;;;11.60;9.60;;;;;;;;5003250;28;8837;-73
2022/08/15 10:51:18;;;;;;;;;7.00;7.00;;;;;;;;5000258;28;8876;-73
2022/08/15 10:53:51;;;;;;;;;6.60;5.80;;;;;;;;4998917;28;8957;-75
2022/08/15 10:56:25;;;;;;;;;8.00;7.80;;;;;;;;5001746;28;8896;-78
2022/08/15 10:58:59;;;;;;;;;8.40;8.40;;;;;;;;5003345;28;8911;-76
2022/08/15 11:01:31;;;;;;;;;7.20;6.60;;;;;;;;5005757;28;8822;-74
2022/08/15 11:04:02;;;;;;;;;6.40;6.40;;;;;;;;5001442;28;8918;-79
2022/08/15 11:06:31;;;;;;;;;7.60;7.60;;;;;;;;5001727;28;8887;-79
2022/08/15 11:09:05;;;;;;;;;7.00;6.80;;;;;;;;5003419;28;8908;-79
2022/08/15 11:11:43;;;;;;;;;8.00;8.00;;;;;;;;5000619;28;8868;-74
2022/08/15 11:14:21;;;;;;;;;6.80;5.20;;;;;;;;4998905;28;9003;-77
2022/08/15 11:16:51;;;;;;;;;4.80;4.00;;;;;;;;5002100;28;8871;-74
2022/08/15 11:19:21;;;;;;;;;7.00;7.00;;;;;;;;5001914;28;8872;-74
2022/08/15 11:21:51;;;;;;;;;4.80;4.80;;;;;;;;5004168;28;8856;-77
2022/08/15 11:24:27;;;;;;;;;8.60;5.00;;;;;;;;4999967;28;8942;-76
2022/08/15 11:27:10;;;;;;;;;5.40;5.40;;;;;;;;5001292;28;8965;-74
2022/08/15 11:29:39;;;;;;;;;5.00;5.00;;;;;;;;5001005;28;8879;-74
2022/08/15 11:32:07;;;;;;;;;6.00;5.00;;;;;;;;4999314;28;8809;-74
2022/08/15 11:34:36;;;;;;;;;4.00;4.00;;;;;;;;5003228;28;8873;-74
2022/08/15 11:37:09;;;;;;;;;6.80;4.80;;;;;;;;5000532;28;8888;-73
2022/08/15 11:39:44;;;;;;;;;5.00;5.00;;;;;;;;5003424;28;8977;-73
2022/08/15 11:42:17;;;;;;;;;5.40;5.00;;;;;;;;4998081;28;8872;-75
2022/08/15 11:44:53;;;;;;;;;4.80;4.80;;;;;;;;5001192;28;9670;-73
2022/08/15 11:47:21;;;;;;;;;4.80;4.00;;;;;;;;5002708;28;8860;-73
2022/08/15 11:49:52;;;;;;;;;6.00;6.00;;;;;;;;5002306;28;8922;-74
2022/08/15 11:52:27;;;;;;;;;5.00;5.00;;;;;;;;4997470;28;9802;-73
2022/08/15 11:55:13;;;;;;;;;5.80;5.80;;;;;;;;4995633;28;9400;-74
2022/08/15 11:57:42;;;;;;;;;9.40;8.00;;;;;;;;5000524;28;8903;-74
2022/08/15 12:00:16;;;;;;;;;7.00;7.00;;;;;;;;4998764;28;8903;-74
2022/08/15 12:02:44;;;;;;;;;4.60;4.60;;;;;;;;5000162;28;8872;-74
2022/08/15 12:05:14;;;;;;;;;6.00;6.00;;;;;;;;5000581;28;8892;-75
2022/08/15 12:07:45;;;;;;;;;5.80;5.80;;;;;;;;5000453;28;9420;-74
2022/08/15 12:10:27;;;;;;;;;3.00;3.00;;;;;;;;5003152;28;8864;-76
2022/08/15 12:12:54;;;;;;;;;5.40;5.40;;;;;;;;4999158;28;8876;-74
2022/08/15 12:15:39;;;;;;;;;5.00;5.00;;;;;;;;5000973;28;8868;-74
2022/08/15 12:18:10;;;;;;;;;5.00;5.00;;;;;;;;5000726;28;9740;-75
2022/08/15 12:20:45;;;;;;;;;4.00;4.00;;;;;;;;5000219;28;9017;-75
2022/08/15 12:23:36;;;;;;;;;3.00;3.00;;;;;;;;5002284;28;8914;-74
2022/08/15 12:26:06;;;;;;;;;4.40;4.40;;;;;;;;5000246;28;8896;-74
2022/08/15 12:28:34;;;;;;;;;6.40;5.60;;;;;;;;5000930;28;8867;-74
2022/08/15 12:31:07;;;;;;;;;4.80;4.80;;;;;;;;5001797;28;8784;-75
2022/08/15 12:33:37;;;;;;;;;4.60;4.60;;;;;;;;4999466;28;8864;-74
2022/08/15 12:36:04;;;;;;;;;5.00;3.00;;;;;;;;5001952;28;8853;-76
2022/08/15 12:38:35;;;;;;;;;3.00;3.00;;;;;;;;4997696;28;8869;-75
2022/08/15 12:41:03;;;;;;;;;2.80;2.80;;;;;;;;5000817;28;8892;-76
2022/08/15 12:43:30;;;;;;;;;3.00;3.00;;;;;;;;4997510;28;8900;-76
2022/08/15 12:45:58;;;;;;;;;2.20;2.20;;;;;;;;5000284;28;8876;-75
2022/08/15 12:48:30;;;;;;;;;1.80;1.80;;;;;;;;4999925;28;8927;-77
2022/08/15 12:50:58;;;;;;;;;3.60;2.00;;;;;;;;5001235;28;8876;-75
2022/08/15 12:53:25;;;;;;;;;2.00;2.00;;;;;;;;4998917;28;8886;-76
2022/08/15 12:55:52;;;;;;;;;2.80;2.80;;;;;;;;4999824;28;8941;-74
2022/08/15 12:58:20;;;;;;;;;2.80;2.80;;;;;;;;5000959;28;8880;-76
2022/08/15 13:00:50;;;;;;;;;0.40;0.40;;;;;;;;4996811;28;8836;-75
2022/08/15 13:03:20;;;;;;;;;2.60;2.60;;;;;;;;4997845;28;8893;-74
2022/08/15 13:05:52;;;;;;;;;2.00;2.00;;;;;;;;4999370;28;8883;-75
2022/08/15 13:08:19;;;;;;;;;2.00;2.00;;;;;;;;5000922;28;8872;-75
2022/08/15 13:10:46;;;;;;;;;2.40;2.40;;;;;;;;4999844;28;8852;-75
2022/08/15 13:13:14;;;;;;;;;2.60;2.60;;;;;;;;4997424;28;8885;-75
2022/08/15 13:15:42;;;;;;;;;2.40;2.40;;;;;;;;4999943;28;8875;-75
2022/08/15 13:18:11;;;;;;;;;1.80;1.80;;;;;;;;5000073;28;8868;-74
2022/08/15 13:23:40;;;;;;;;;5.00;3.00;;;;;;;;4998060;28;8852;-75
2022/08/15 13:26:08;;;;;;;;;3.00;3.00;;;;;;;;5000186;28;8875;-76
2022/08/15 13:28:40;;;;;;;;;2.40;2.40;;;;;;;;4998881;28;8994;-75
2022/08/15 13:31:08;;;;;;;;;3.00;3.00;;;;;;;;4997291;28;8813;-74
2022/08/15 13:33:38;;;;;;;;;2.00;2.00;;;;;;;;4999080;28;8861;-77
2022/08/15 13:36:09;;;;;;;;;1.40;1.40;;;;;;;;4997756;28;8876;-77
2022/08/15 13:38:41;;;;;;;;;2.40;2.40;;;;;;;;5000698;28;8881;-77
2022/08/15 13:41:09;;;;;;;;;2.00;2.00;;;;;;;;4999286;28;8872;-75
2022/08/15 13:43:41;;;;;;;;;1.80;1.80;;;;;;;;4996315;28;8991;-75
2022/08/15 13:46:10;;;;;;;;;3.60;2.00;;;;;;;;4997138;28;8868;-75
2022/08/15 13:48:41;;;;;;;;;3.00;3.00;;;;;;;;4997295;28;8915;-76
2022/08/15 13:51:13;;;;;;;;;2.40;2.40;;;;;;;;5001514;28;8856;-75
2022/08/15 13:53:43;;;;;;;;;1.60;1.60;;;;;;;;4993215;28;8880;-74
2022/08/15 13:56:10;;;;;;;;;2.40;2.40;;;;;;;;4997914;28;9278;-75
2022/08/15 13:58:37;;;;;;;;;2.00;2.00;;;;;;;;4997717;28;8864;-76
2022/08/15 14:01:05;;;;;;;;;2.00;2.00;;;;;;;;5000574;28;8841;-75
2022/08/15 14:03:36;;;;;;;;;3.00;1.60;;;;;;;;4999038;28;8950;-75
2022/08/15 14:06:03;;;;;;;;;3.00;3.00;;;;;;;;4999362;28;8876;-75
2022/08/15 14:08:32;;;;;;;;;2.00;2.00;;;;;;;;4997719;28;8896;-75
2022/08/15 14:11:00;;;;;;;;;2.80;2.80;;;;;;;;4995514;28;8896;-75
2022/08/15 14:13:28;;;;;;;;;2.00;2.00;;;;;;;;5000164;28;8922;-75
2022/08/15 14:15:55;;;;;;;;;1.80;1.80;;;;;;;;4997272;28;8888;-76
2022/08/15 14:18:23;;;;;;;;;2.00;2.00;;;;;;;;4996283;28;8904;-76
2022/08/15 14:20:50;;;;;;;;;3.20;3.20;;;;;;;;4996172;28;8872;-76
2022/08/15 14:23:18;;;;;;;;;2.40;2.40;;;;;;;;4999122;28;8872;-75
2022/08/15 14:25:49;;;;;;;;;2.60;2.60;;;;;;;;5001716;28;8903;-76
2022/08/15 14:28:18;;;;;;;;;1.20;1.20;;;;;;;;4995686;28;9642;-76
2022/08/15 14:30:46;;;;;;;;;2.00;2.00;;;;;;;;5003332;28;9611;-76
2022/08/15 14:33:13;;;;;;;;;3.00;3.00;;;;;;;;5001437;28;8861;-76
2022/08/15 14:35:40;;;;;;;;;2.40;2.40;;;;;;;;5003462;28;8868;-76
2022/08/15 14:38:08;;;;;;;;;2.20;2.20;;;;;;;;5002650;28;8857;-75
2022/08/15 14:40:39;;;;;;;;;3.00;3.00;;;;;;;;5001079;28;9032;-76
2022/08/15 14:43:14;;;;;;;;;4.00;4.00;;;;;;;;5002267;28;8852;-75
2022/08/15 14:45:43;;;;;;;;;3.60;2.60;;;;;;;;5002783;28;8899;-76
2022/08/15 14:48:14;;;;;;;;;3.40;3.40;;;;;;;;5002661;28;8868;-75
2022/08/15 14:50:41;;;;;;;;;2.60;2.60;;;;;;;;4999597;28;8889;-76
2022/08/15 14:53:09;;;;;;;;;3.40;3.40;;;;;;;;4999247;28;8880;-76
2022/08/15 14:55:39;;;;;;;;;3.00;3.00;;;;;;;;5000974;28;8868;-76
2022/08/15 14:58:09;;;;;;;;;2.60;2.60;;;;;;;;5000041;28;9031;-75
2022/08/15 15:00:37;;;;;;;;;2.00;2.00;;;;;;;;5001037;28;8887;-75
2022/08/15 15:03:09;;;;;;;;;2.40;2.40;;;;;;;;4997247;28;9457;-76
2022/08/15 15:05:37;;;;;;;;;2.80;1.60;;;;;;;;4999129;28;8884;-75
2022/08/15 15:08:06;;;;;;;;;1.40;1.40;;;;;;;;4998359;28;9641;-75
2022/08/15 15:10:34;;;;;;;;;2.00;2.00;;;;;;;;4997360;28;8915;-76
2022/08/15 15:13:07;;;;;;;;;2.00;2.00;;;;;;;;5000691;28;8876;-76
2022/08/15 15:15:36;;;;;;;;;3.00;3.00;;;;;;;;4996656;28;9733;-80
2022/08/15 15:18:09;;;;;;;;;3.00;3.00;;;;;;;;5001404;28;8860;-78
2022/08/15 15:20:38;;;;;;;;;2.20;2.20;;;;;;;;4998519;28;8888;-79